Latest Weather Observations for Maroochydore

IDQ60801

Issued at 7:32 pm EST Friday 26 May 2017 (issued every 30 minutes, with the page automatically refreshed every 10 minutes)

About weather observations | Map of weather stations | Latest weather observations for QLD | Other Formats
Station Details ID: 040861 Name: SUNSHINE COAST AIRPORT Lat: -26.60 Lon: 153.09 Height: 3.3 m
Data from the previous 72 hours. | See also: Recent months at Maroochydore
Date/Time
EST
Temp
°C
App
Temp
°C
Dew
Point
°C
Rel
Hum
%
Delta-T
°C
Wind Press
QNH
hPa
Press
MSL
hPa
Rain since
9am
mm
Dir  Spd
km/h
Gust
km/h
Spd
kts
Gust
kts
26/07:00pm 16.3 16.2 13.8 85 1.4 SW 7 9 4 5 1019.4 - 0.0
26/06:30pm 16.8 16.8 14.1 84 1.5 SW 7 9 4 5 1018.9 - 0.0
26/06:00pm 18.8 18.5 13.2 70 3.2 SSE 7 9 4 5 1018.6 1018.6 0.0
26/05:30pm 20.7 19.9 13.9 65 3.9 ESE 11 15 6 8 1018.3 - 0.0
26/05:00pm 20.9 19.7 14.1 65 3.9 E 13 19 7 10 1018.0 - 0.0
26/04:30pm 21.5 19.9 13.9 62 4.4 E 15 20 8 11 1018.1 - 0.0
26/04:00pm 22.0 20.5 14.1 61 4.6 E 15 19 8 10 1018.1 - 0.0
26/03:30pm 22.3 20.8 14.2 60 4.7 E 15 20 8 11 1017.9 - 0.0
26/03:00pm 22.4 20.6 14.5 61 4.6 E 17 20 9 11 1018.0 1018.0 0.0
26/02:30pm 22.6 20.5 13.7 57 5.2 ESE 17 20 9 11 1018.2 - 0.0
26/02:00pm 22.5 20.4 13.6 57 5.2 ESE 17 20 9 11 1018.3 - 0.0
26/01:30pm 22.7 21.0 14.8 61 4.7 ESE 17 22 9 12 1018.5 - 0.0
26/01:00pm 22.7 21.1 15.0 61 4.6 ESE 17 22 9 12 1018.8 - 0.0
26/12:30pm 23.0 21.1 15.1 61 4.7 SE 19 22 10 12 1019.2 - 0.0
26/12:00pm 23.3 21.2 14.6 58 5.1 ESE 19 22 10 12 1019.6 1019.6 0.0
26/11:30am 23.5 21.0 14.2 56 5.5 ESE 20 24 11 13 1020.2 - 0.0
26/11:00am 23.7 21.8 14.1 55 5.6 SE 17 22 9 12 1020.5 - 0.0
26/10:30am 23.2 21.9 13.7 55 5.5 S 13 22 7 12 1020.8 - 0.0
26/10:00am 23.1 22.1 15.7 63 4.5 S 15 20 8 11 1020.9 - 0.0
26/09:30am 22.2 21.5 15.5 66 4.0 SSW 13 17 7 9 1021.0 - 0.0
26/09:00am 20.8 21.2 16.2 75 2.8 SW 9 15 5 8 1020.9 1020.9 0.0
26/08:30am 19.1 18.7 16.3 84 1.7 SW 13 17 7 9 1020.7 - 0.0
26/08:00am 17.8 17.7 16.0 89 1.1 WSW 11 15 6 8 1020.5 - 0.0
26/07:30am 16.3 16.5 15.7 96 0.4 W 9 11 5 6 1020.4 - 0.0
26/07:00am 14.6 14.2 14.0 96 0.3 W 9 11 5 6 1020.0 - 0.0
26/06:30am 14.0 13.8 13.5 97 0.3 SW 7 11 4 6 1019.7 - 0.0
26/06:00am 14.1 13.5 13.5 96 0.3 WSW 9 13 5 7 1019.3 1019.3 0.0
26/05:30am 14.1 13.5 13.6 97 0.3 WSW 9 13 5 7 1018.9 - 0.0
26/05:00am 14.2 13.4 13.9 98 0.2 WSW 11 11 6 6 1018.4 - 0.0
26/04:30am 14.0 13.5 13.7 98 0.2 SW 9 11 5 6 1018.2 - 0.0
26/04:00am 13.8 13.1 13.3 97 0.3 SW 9 11 5 6 1018.2 - 0.0
26/03:30am 13.7 12.6 13.1 96 0.3 WSW 11 11 6 6 1018.3 - 0.0
26/03:00am 12.7 12.1 11.8 94 0.5 SW 6 7 3 4 1018.4 1018.4 0.0
26/02:39am 12.9 12.2 12.0 94 0.5 WSW 7 7 4 4 1018.6 - 0.0
26/02:30am 12.8 12.3 12.0 95 0.4 W 6 7 3 4 1018.6 - 0.0
26/02:00am 13.3 12.8 12.5 95 0.4 WSW 7 9 4 5 1018.8 - 0.0
26/01:58am 13.1 12.5 12.3 95 0.4 WSW 7 9 4 5 1018.8 - 0.0
26/01:53am 12.9 12.2 12.0 94 0.5 WSW 7 9 4 5 1018.8 - 0.0
26/01:30am 13.2 12.7 12.6 96 0.3 W 7 9 4 5 1018.9 - 0.0
26/01:00am 13.4 13.0 12.9 97 0.3 W 7 9 4 5 1019.2 - 0.0
26/12:30am 13.8 13.5 13.2 96 0.3 W 7 7 4 4 1019.3 - 0.0
26/12:25am 13.6 13.2 13.1 97 0.3 W 7 7 4 4 1019.4 - 0.0
26/12:00am 13.8 13.7 13.2 96 0.3 W 6 7 3 4 1019.5 1019.5 0.0
 
Date/Time
EST
Temp
°C
App
Temp
°C
Dew
Point
°C
Rel
Hum
%
Delta-T
°C
Wind Press
QNH
hPa
Press
MSL
hPa
Rain since
9am
mm
Dir  Spd
km/h
Gust
km/h
Spd
kts
Gust
kts
25/11:30pm 13.3 12.9 12.4 94 0.5 WSW 6 7 3 4 1019.5 - 0.0
25/11:00pm 14.3 14.1 13.5 95 0.4 WSW 7 9 4 5 1019.5 - 0.0
25/10:30pm 14.2 14.0 13.1 93 0.6 WSW 6 6 3 3 1019.5 - 0.0
25/10:00pm 14.8 14.8 13.7 93 0.6 WSW 6 7 3 4 1019.6 - 0.0
25/09:30pm 15.5 15.5 14.2 92 0.7 WSW 7 9 4 5 1019.5 - 0.0
25/09:00pm 16.0 17.4 14.5 91 0.9 CALM 0 7 0 4 1019.6 1019.6 0.0
25/08:30pm 16.7 16.7 15.2 91 0.9 SW 9 13 5 7 1019.5 - 0.0
25/08:00pm 17.1 16.5 14.7 86 1.4 WSW 11 13 6 7 1019.4 - 0.0
25/07:30pm 18.0 18.5 14.9 82 1.8 S 6 9 3 5 1019.2 - 0.0
25/07:00pm 19.9 19.0 14.9 73 2.9 SSE 13 20 7 11 1019.0 - 0.0
25/06:30pm 20.4 19.5 15.8 75 2.7 SSE 15 20 8 11 1018.6 - 0.0
25/06:00pm 20.1 19.1 15.5 75 2.7 SSE 15 20 8 11 1018.4 1018.4 0.0
25/05:30pm 20.5 19.2 15.7 74 2.9 SSE 17 20 9 11 1018.2 - 0.0
25/05:00pm 20.6 19.5 15.4 72 3.1 SSE 15 24 8 13 1018.0 - 0.0
25/04:30pm 21.3 19.1 14.9 67 3.8 SE 20 26 11 14 1017.7 - 0.0
25/04:00pm 22.0 20.0 15.4 66 3.9 SSE 20 26 11 14 1017.4 - 0.0
25/03:30pm 22.4 20.2 14.8 62 4.5 SSE 20 30 11 16 1017.2 - 0.0
25/03:00pm 22.9 20.0 15.0 61 4.7 SSE 24 30 13 16 1017.0 1017.0 0.0
25/02:30pm 23.8 21.7 15.3 59 5.1 SSE 20 28 11 15 1017.1 - 0.0
25/02:00pm 23.6 20.3 14.0 55 5.6 SSE 24 30 13 16 1017.1 - 0.0
25/01:30pm 24.0 21.6 15.5 59 5.1 SSE 22 30 12 16 1017.1 - 0.0
25/01:00pm 24.0 21.7 14.7 56 5.5 SSE 20 30 11 16 1017.2 - 0.0
25/12:30pm 24.4 22.5 15.1 56 5.6 SSE 19 26 10 14 1017.5 - 0.0
25/12:00pm 24.2 21.6 14.9 56 5.5 SSE 22 30 12 16 1017.8 1017.8 0.0
25/11:30am 24.3 22.1 15.0 56 5.6 S 20 28 11 15 1018.0 - 0.0
25/11:00am 24.5 22.5 14.9 55 5.7 S 19 30 10 16 1018.2 - 0.0
25/10:30am 23.8 21.3 14.2 55 5.7 S 20 30 11 16 1018.4 - 0.0
25/10:00am 23.1 19.8 12.7 52 6.0 S 22 32 12 17 1018.6 - 0.0
25/09:30am 22.5 19.6 12.2 52 5.8 SSW 19 28 10 15 1018.6 - 0.0
25/09:00am 21.7 18.4 10.8 50 6.0 SSW 19 20 10 11 1018.5 1018.5 0.2
25/08:30am 19.9 18.0 11.9 60 4.4 WSW 13 17 7 9 1018.5 - 0.2
25/08:00am 18.3 16.6 12.5 69 3.2 WSW 13 15 7 8 1018.3 - 0.2
25/07:30am 16.7 15.4 12.5 76 2.3 SW 11 15 6 8 1017.9 - 0.2
25/07:00am 15.1 14.0 12.1 82 1.6 WSW 9 11 5 6 1017.6 - 0.2
25/06:30am 14.0 13.9 12.0 88 1.1 NW 4 7 2 4 1017.4 - 0.2
25/06:00am 14.3 13.1 12.9 91 0.8 WSW 11 15 6 8 1016.9 1016.9 0.2
25/05:30am 13.5 12.3 12.7 95 0.4 WSW 11 13 6 7 1016.7 - 0.2
25/05:16am 12.5 11.6 11.2 92 0.7 WSW 7 7 4 4 1016.5 - 0.2
25/05:00am 13.5 14.4 12.9 96 0.3 CALM 0 0 0 0 1016.3 - 0.0
25/04:30am 14.0 13.3 13.1 94 0.5 SW 9 11 5 6 1015.9 - 0.0
25/04:00am 14.8 14.7 13.8 94 0.6 SW 7 9 4 5 1015.7 - 0.0
25/03:30am 15.6 14.8 15.0 96 0.3 W 13 15 7 8 1015.7 - 0.0
25/03:00am 15.7 16.2 15.1 96 0.3 W 6 7 3 4 1015.7 1015.7 0.0
25/02:30am 16.0 16.4 15.4 96 0.3 W 7 9 4 5 1015.5 - 0.0
25/02:00am 16.0 16.0 15.2 95 0.5 W 9 11 5 6 1015.6 - 0.0
25/01:30am 16.7 16.6 15.9 95 0.5 W 11 13 6 7 1015.6 - 0.0
25/01:00am 17.0 17.1 16.4 96 0.4 WNW 11 11 6 6 1015.7 - 0.0
25/12:30am 16.8 17.2 16.2 96 0.4 WNW 9 11 5 6 1015.9 - 0.0
25/12:21am 16.6 16.9 16.1 97 0.3 WNW 9 11 5 6 1016.0 - 0.0
25/12:00am 16.1 16.7 15.3 95 0.5 WNW 6 9 3 5 1016.1 1016.1 0.0
 
Date/Time
EST
Temp
°C
App
Temp
°C
Dew
Point
°C
Rel
Hum
%
Delta-T
°C
Wind Press
QNH
hPa
Press
MSL
hPa
Rain since
9am
mm
Dir  Spd
km/h
Gust
km/h
Spd
kts
Gust
kts
24/11:54pm 16.3 17.0 15.5 95 0.5 W 6 7 3 4 1016.1 - 0.0
24/11:30pm 17.0 17.9 16.5 97 0.3 W 7 9 4 5 1016.2 - 0.0
24/11:00pm 17.2 18.1 16.7 97 0.3 WNW 7 7 4 4 1016.3 - 0.0
24/10:52pm 17.3 17.9 16.8 97 0.3 NW 9 9 5 5 1016.4 - 0.0
24/10:30pm 16.9 17.6 16.1 95 0.5 WNW 7 7 4 4 1016.4 - 0.0
24/10:25pm 16.8 17.7 16.0 95 0.5 WNW 6 7 3 4 1016.4 - 0.0
24/10:00pm 17.2 18.2 16.4 95 0.5 W 6 7 3 4 1016.6 - 0.0
24/09:30pm 18.2 19.4 17.4 95 0.5 NNE 7 9 4 5 1016.5 - 0.0
24/09:00pm 18.3 19.2 17.5 95 0.5 NW 9 13 5 7 1016.4 1016.4 0.0
24/08:30pm 18.4 19.0 17.6 95 0.5 NNW 11 13 6 7 1016.4 - 0.0
24/08:00pm 17.7 18.5 16.4 92 0.8 N 7 9 4 5 1016.4 - 0.0
24/07:30pm 18.6 20.0 17.3 92 0.8 NW 6 7 3 4 1016.4 - 0.0
24/07:00pm 19.4 21.0 17.9 91 0.9 WNW 6 6 3 3 1016.4 - 0.0
24/06:30pm 19.6 20.9 17.6 88 1.2 NW 7 11 4 6 1016.3 - 0.0
24/06:00pm 20.1 21.1 17.7 86 1.5 NNW 9 13 5 7 1016.1 1016.1 0.0
24/05:30pm 20.6 21.3 18.0 85 1.6 N 11 13 6 7 1016.0 - 0.0
24/05:00pm 21.2 21.6 18.2 83 1.9 N 13 19 7 10 1015.9 - 0.0
24/04:30pm 22.3 22.4 18.3 78 2.5 N 15 20 8 11 1015.7 - 0.0
24/04:00pm 23.0 22.2 17.9 73 3.2 N 19 24 10 13 1015.4 - 0.0
24/03:30pm 23.6 22.5 17.8 70 3.6 NNE 20 24 11 13 1015.3 - 0.0
24/03:00pm 24.4 23.5 18.1 68 4.0 NNE 20 24 11 13 1015.4 1015.4 0.0
24/02:30pm 24.4 23.6 17.9 67 4.1 NNE 19 24 10 13 1015.5 - 0.0
24/02:00pm 24.8 23.8 17.5 64 4.6 NNE 19 24 10 13 1015.6 - 0.0
24/01:30pm 24.9 24.3 17.6 64 4.6 NNE 17 22 9 12 1016.0 - 0.0
24/01:00pm 24.8 23.5 16.8 61 4.9 NNE 19 24 10 13 1016.4 - 0.0
24/12:30pm 24.7 23.3 16.9 62 4.8 NE 20 24 11 13 1016.7 - 0.0
24/12:00pm 24.1 23.4 17.4 66 4.2 ENE 17 22 9 12 1017.3 1017.3 0.0
24/11:30am 24.1 23.6 16.9 64 4.4 ENE 15 17 8 9 1017.9 - 0.0
24/11:00am 23.9 24.1 17.6 68 3.9 NE 13 17 7 9 1018.4 - 0.0
24/10:30am 23.9 24.3 17.2 66 4.1 ENE 11 13 6 7 1018.9 - 0.0
24/10:00am 23.9 24.5 16.9 65 4.3 NW 9 11 5 6 1019.2 - 0.0
24/09:30am 22.8 24.2 17.9 74 3.1 NW 7 9 4 5 1019.4 - 0.0
24/09:00am 20.5 21.7 18.3 87 1.4 WNW 9 11 5 6 1019.7 1019.7 0.2
24/08:30am 19.2 20.4 18.2 94 0.6 W 9 11 5 6 1019.7 - 0.2
24/08:00am 17.6 18.3 17.1 97 0.3 W 9 11 5 6 1019.5 - 0.2
24/07:30am 16.4 17.3 16.1 98 0.2 W 6 7 3 4 1019.3 - 0.2
24/07:00am 14.9 15.1 14.6 98 0.2 W 7 9 4 5 1019.2 - 0.2
24/06:59am 14.8 14.9 14.5 98 0.2 W 7 9 4 5 1019.2 - 0.2
24/06:30am 14.2 13.6 13.6 96 0.3 W 9 9 5 5 1019.0 - 0.2
24/06:12am 14.3 13.7 13.5 95 0.4 W 9 9 5 5 1018.9 - 0.2
24/06:00am 14.1 13.9 13.6 97 0.3 W 7 9 4 5 1018.9 1018.9 0.2
24/05:41am 14.1 13.9 13.6 97 0.3 W 7 9 4 5 1018.8 - 0.2
24/05:31am 13.8 13.5 13.3 97 0.3 W 7 9 4 5 1018.7 - 0.2
24/05:30am 13.8 13.5 13.3 97 0.3 W 7 9 4 5 1018.7 - 0.2
24/05:00am 14.4 14.0 14.1 98 0.2 W 9 9 5 5 1018.5 - 0.2
24/04:52am 14.6 14.6 14.3 98 0.2 W 7 9 4 5 1018.5 - 0.2
24/04:30am 14.6 14.7 14.4 99 0.1 W 7 9 4 5 1018.2 - 0.2
24/04:00am 14.4 14.3 13.9 97 0.3 WSW 7 9 4 5 1018.0 - 0.2
24/03:38am 14.4 14.3 13.8 96 0.3 W 7 9 4 5 1018.0 - 0.2
24/03:30am 14.4 14.1 13.3 93 0.6 W 7 9 4 5 1018.0 - 0.2
24/03:21am 14.3 14.2 13.8 97 0.3 W 7 9 4 5 1018.1 - 0.2
24/03:00am 14.6 14.2 14.1 97 0.3 W 9 9 5 5 1018.1 1018.1 0.2
24/02:30am 14.7 15.0 14.4 98 0.2 W 6 7 3 4 1018.2 - 0.2
24/02:00am 15.2 15.0 14.7 97 0.3 W 9 11 5 6 1018.6 - 0.2
24/01:30am 14.9 15.0 14.4 97 0.3 WNW 7 9 4 5 1018.8 - 0.0
24/01:06am 15.3 15.7 14.8 97 0.3 W 6 7 3 4 1019.2 - 0.0
24/01:00am 15.2 15.5 14.9 98 0.2 W 7 7 4 4 1019.3 - 0.0
24/12:52am 15.1 15.3 14.6 97 0.3 W 7 7 4 4 1019.4 - 0.0
24/12:46am 15.3 15.5 14.8 97 0.3 W 7 9 4 5 1019.4 - 0.0
24/12:33am 15.7 16.1 15.2 97 0.3 W 7 9 4 5 1019.6 - 0.0
24/12:30am 15.7 16.1 15.4 98 0.2 W 7 9 4 5 1019.6 - 0.0
24/12:00am 15.5 16.0 15.0 97 0.3 W 6 7 3 4 1019.8 1019.8 0.0
 
Date/Time
EST
Temp
°C
App
Temp
°C
Dew
Point
°C
Rel
Hum
%
Delta-T
°C
Wind Press
QNH
hPa
Press
MSL
hPa
Rain since
9am
mm
Dir  Spd
km/h
Gust
km/h
Spd
kts
Gust
kts
23/11:30pm 15.8 16.4 15.3 97 0.3 WSW 6 7 3 4 1020.1 - 0.0
23/11:00pm 16.0 16.4 15.4 96 0.3 WSW 7 9 4 5 1020.2 - 0.0
23/10:30pm 16.0 16.7 15.5 97 0.3 WSW 6 6 3 3 1020.3 - 0.0
23/10:00pm 16.2 16.9 15.6 96 0.3 WSW 6 7 3 4 1020.2 - 0.0
23/09:30pm 15.2 15.5 14.4 95 0.5 WSW 6 7 3 4 1020.1 - 0.0
23/09:00pm 16.9 17.9 16.3 96 0.4 WSW 6 6 3 3 1020.0 1020.0 0.0
23/08:30pm 16.8 17.7 16.0 95 0.5 W 6 7 3 4 1020.0 - 0.0
23/08:00pm 17.0 17.9 16.0 94 0.6 W 6 7 3 4 1020.0 - 0.0
23/07:47pm 17.4 18.3 16.6 95 0.5 WSW 7 7 4 4 1019.9 - 0.0

Other Formats:

Comma delimited format used in spreadsheet applications
http://www.bom.gov.au/fwo/IDQ60801/IDQ60801.94569.axf

JavaScript Object Notation format (JSON) in row-major order
http://www.bom.gov.au/fwo/IDQ60801/IDQ60801.94569.json